Terminal Aerodrome Forecast
Issued by NWS

Home | Current Version | Previous Version | Text Only | Print | Product List | Glossary On
Versions: 1 2 3 4 5 6 7 8 9 10 11 12 13 14 15 16 17 18 19 20
000
FTUS43 KABR 022327
TAFPIR
TAF
KPIR 022327Z 0300/0324 VRB05KT P6SM VCTS SCT040CB BKN250
     FM030300 VRB03KT P6SM BKN250
     FM031000 VRB04KT 4SM BR BKN025
     FM031500 VRB05KT P6SM SCT250=

USA.gov is the U.S. government's official web portal to all federal, state and local government web resources and services.